sensor_id;sensor_type;location;lat;lon;timestamp;P1;durP1;ratioP1;P2;durP2;ratioP2
15952;SDS011;8075;47.766;8.846;2023-06-04T00:02:05;5.63;;;5.22;;
15952;SDS011;8075;47.766;8.846;2023-06-04T00:04:31;5.20;;;4.70;;
15952;SDS011;8075;47.766;8.846;2023-06-04T00:06:57;5.37;;;4.87;;
15952;SDS011;8075;47.766;8.846;2023-06-04T00:09:23;5.70;;;5.20;;
15952;SDS011;8075;47.766;8.846;2023-06-04T00:11:49;5.25;;;4.75;;
15952;SDS011;8075;47.766;8.846;2023-06-04T00:14:15;5.53;;;5.13;;
15952;SDS011;8075;47.766;8.846;2023-06-04T00:16:41;5.80;;;5.30;;
15952;SDS011;8075;47.766;8.846;2023-06-04T00:19:08;6.07;;;5.03;;
15952;SDS011;8075;47.766;8.846;2023-06-04T00:21:34;5.60;;;5.10;;
15952;SDS011;8075;47.766;8.846;2023-06-04T00:24:00;5.65;;;5.15;;
15952;SDS011;8075;47.766;8.846;2023-06-04T00:26:26;5.68;;;5.28;;
15952;SDS011;8075;47.766;8.846;2023-06-04T00:28:55;5.68;;;5.18;;
15952;SDS011;8075;47.766;8.846;2023-06-04T00:31:21;5.90;;;5.40;;
15952;SDS011;8075;47.766;8.846;2023-06-04T00:33:48;5.25;;;4.82;;
15952;SDS011;8075;47.766;8.846;2023-06-04T00:36:14;5.40;;;4.90;;
15952;SDS011;8075;47.766;8.846;2023-06-04T00:38:40;5.85;;;5.35;;
15952;SDS011;8075;47.766;8.846;2023-06-04T00:41:07;5.38;;;4.97;;
15952;SDS011;8075;47.766;8.846;2023-06-04T00:43:33;5.80;;;5.00;;
15952;SDS011;8075;47.766;8.846;2023-06-04T00:46:00;5.53;;;5.03;;
15952;SDS011;8075;47.766;8.846;2023-06-04T00:48:28;5.80;;;5.33;;
15952;SDS011;8075;47.766;8.846;2023-06-04T00:50:55;5.47;;;4.97;;
15952;SDS011;8075;47.766;8.846;2023-06-04T00:53:23;5.73;;;5.17;;
15952;SDS011;8075;47.766;8.846;2023-06-04T00:55:49;6.15;;;5.25;;
15952;SDS011;8075;47.766;8.846;2023-06-04T00:58:15;6.72;;;5.30;;
15952;SDS011;8075;47.766;8.846;2023-06-04T01:00:42;5.45;;;4.95;;
15952;SDS011;8075;47.766;8.846;2023-06-04T01:03:10;6.10;;;5.60;;
15952;SDS011;8075;47.766;8.846;2023-06-04T01:05:39;5.90;;;5.35;;
15952;SDS011;8075;47.766;8.846;2023-06-04T01:08:07;5.63;;;5.20;;
15952;SDS011;8075;47.766;8.846;2023-06-04T01:10:36;6.00;;;5.45;;
15952;SDS011;8075;47.766;8.846;2023-06-04T01:13:02;6.17;;;5.60;;
15952;SDS011;8075;47.766;8.846;2023-06-04T01:15:28;6.17;;;5.40;;
15952;SDS011;8075;47.766;8.846;2023-06-04T01:17:58;6.90;;;5.40;;
15952;SDS011;8075;47.766;8.846;2023-06-04T01:20:30;6.47;;;5.88;;
15952;SDS011;8075;47.766;8.846;2023-06-04T01:23:10;5.68;;;5.18;;
15952;SDS011;8075;47.766;8.846;2023-06-04T01:25:40;5.93;;;5.32;;
15952;SDS011;8075;47.766;8.846;2023-06-04T01:28:09;6.43;;;5.27;;
15952;SDS011;8075;47.766;8.846;2023-06-04T01:30:42;5.90;;;5.30;;
15952;SDS011;8075;47.766;8.846;2023-06-04T01:33:11;6.17;;;5.57;;
15952;SDS011;8075;47.766;8.846;2023-06-04T01:35:37;5.60;;;4.95;;
15952;SDS011;8075;47.766;8.846;2023-06-04T01:38:03;5.90;;;5.40;;
15952;SDS011;8075;47.766;8.846;2023-06-04T01:40:29;6.25;;;5.65;;
15952;SDS011;8075;47.766;8.846;2023-06-04T01:42:55;5.90;;;5.35;;
15952;SDS011;8075;47.766;8.846;2023-06-04T01:45:22;5.83;;;5.27;;
15952;SDS011;8075;47.766;8.846;2023-06-04T01:47:48;6.13;;;5.50;;
15952;SDS011;8075;47.766;8.846;2023-06-04T01:50:14;5.95;;;5.40;;
15952;SDS011;8075;47.766;8.846;2023-06-04T01:52:42;5.68;;;5.22;;
15952;SDS011;8075;47.766;8.846;2023-06-04T01:55:09;5.68;;;5.18;;
15952;SDS011;8075;47.766;8.846;2023-06-04T01:57:37;6.32;;;5.72;;
15952;SDS011;8075;47.766;8.846;2023-06-04T02:00:03;5.80;;;5.30;;
15952;SDS011;8075;47.766;8.846;2023-06-04T02:02:32;5.60;;;5.15;;
15952;SDS011;8075;47.766;8.846;2023-06-04T02:04:58;6.77;;;5.20;;
15952;SDS011;8075;47.766;8.846;2023-06-04T02:07:24;5.82;;;5.40;;
15952;SDS011;8075;47.766;8.846;2023-06-04T02:09:51;5.85;;;5.15;;
15952;SDS011;8075;47.766;8.846;2023-06-04T02:12:17;6.23;;;5.67;;
15952;SDS011;8075;47.766;8.846;2023-06-04T02:14:43;6.07;;;5.13;;
15952;SDS011;8075;47.766;8.846;2023-06-04T02:17:12;5.82;;;5.30;;
15952;SDS011;8075;47.766;8.846;2023-06-04T02:19:47;6.50;;;5.47;;
15952;SDS011;8075;47.766;8.846;2023-06-04T02:22:15;5.83;;;5.30;;
15952;SDS011;8075;47.766;8.846;2023-06-04T02:24:41;5.55;;;5.05;;
15952;SDS011;8075;47.766;8.846;2023-06-04T02:27:07;5.80;;;5.27;;
15952;SDS011;8075;47.766;8.846;2023-06-04T02:29:34;5.13;;;4.72;;
15952;SDS011;8075;47.766;8.846;2023-06-04T02:32:00;6.20;;;5.60;;
15952;SDS011;8075;47.766;8.846;2023-06-04T02:34:26;5.82;;;5.32;;
15952;SDS011;8075;47.766;8.846;2023-06-04T02:36:52;5.37;;;4.87;;
15952;SDS011;8075;47.766;8.846;2023-06-04T02:39:19;6.60;;;5.45;;
15952;SDS011;8075;47.766;8.846;2023-06-04T02:41:45;6.60;;;5.20;;
15952;SDS011;8075;47.766;8.846;2023-06-04T02:44:11;5.88;;;5.28;;
15952;SDS011;8075;47.766;8.846;2023-06-04T02:46:38;5.55;;;5.05;;
15952;SDS011;8075;47.766;8.846;2023-06-04T02:49:04;6.15;;;5.15;;
15952;SDS011;8075;47.766;8.846;2023-06-04T02:51:30;5.53;;;4.93;;
15952;SDS011;8075;47.766;8.846;2023-06-04T02:53:57;5.18;;;4.78;;
15952;SDS011;8075;47.766;8.846;2023-06-04T02:56:23;5.70;;;4.80;;
15952;SDS011;8075;47.766;8.846;2023-06-04T02:58:51;5.50;;;5.00;;
15952;SDS011;8075;47.766;8.846;2023-06-04T03:01:18;5.90;;;5.30;;
15952;SDS011;8075;47.766;8.846;2023-06-04T03:03:45;5.65;;;5.20;;
15952;SDS011;8075;47.766;8.846;2023-06-04T03:06:12;5.53;;;5.03;;
15952;SDS011;8075;47.766;8.846;2023-06-04T03:08:39;5.63;;;5.03;;
15952;SDS011;8075;47.766;8.846;2023-06-04T03:11:05;5.20;;;4.80;;
15952;SDS011;8075;47.766;8.846;2023-06-04T03:13:31;5.82;;;4.70;;
15952;SDS011;8075;47.766;8.846;2023-06-04T03:15:57;5.15;;;4.65;;
15952;SDS011;8075;47.766;8.846;2023-06-04T03:18:26;5.38;;;4.97;;
15952;SDS011;8075;47.766;8.846;2023-06-04T03:20:52;5.97;;;4.95;;
15952;SDS011;8075;47.766;8.846;2023-06-04T03:23:19;5.30;;;4.78;;
15952;SDS011;8075;47.766;8.846;2023-06-04T03:25:45;5.07;;;4.68;;
15952;SDS011;8075;47.766;8.846;2023-06-04T03:28:11;5.25;;;4.75;;
15952;SDS011;8075;47.766;8.846;2023-06-04T03:30:37;4.30;;;4.00;;
15952;SDS011;8075;47.766;8.846;2023-06-04T03:33:03;5.68;;;4.80;;
15952;SDS011;8075;47.766;8.846;2023-06-04T03:35:29;5.80;;;4.60;;
15952;SDS011;8075;47.766;8.846;2023-06-04T03:37:55;5.25;;;4.75;;
15952;SDS011;8075;47.766;8.846;2023-06-04T03:40:21;4.80;;;4.40;;
15952;SDS011;8075;47.766;8.846;2023-06-04T03:42:47;5.10;;;4.70;;
15952;SDS011;8075;47.766;8.846;2023-06-04T03:45:13;5.30;;;4.80;;
15952;SDS011;8075;47.766;8.846;2023-06-04T03:47:39;4.55;;;4.15;;
15952;SDS011;8075;47.766;8.846;2023-06-04T03:50:05;6.22;;;4.60;;
15952;SDS011;8075;47.766;8.846;2023-06-04T03:52:31;4.40;;;4.00;;
15952;SDS011;8075;47.766;8.846;2023-06-04T03:54:58;4.80;;;4.30;;
15952;SDS011;8075;47.766;8.846;2023-06-04T03:57:24;4.80;;;4.40;;
15952;SDS011;8075;47.766;8.846;2023-06-04T03:59:50;5.03;;;4.60;;
15952;SDS011;8075;47.766;8.846;2023-06-04T04:02:16;5.23;;;4.63;;
15952;SDS011;8075;47.766;8.846;2023-06-04T04:04:43;4.70;;;4.20;;
15952;SDS011;8075;47.766;8.846;2023-06-04T04:07:09;4.82;;;4.35;;
15952;SDS011;8075;47.766;8.846;2023-06-04T04:09:35;4.45;;;4.03;;
15952;SDS011;8075;47.766;8.846;2023-06-04T04:12:02;4.60;;;4.10;;
15952;SDS011;8075;47.766;8.846;2023-06-04T04:14:28;5.13;;;4.10;;
15952;SDS011;8075;47.766;8.846;2023-06-04T04:16:54;4.80;;;4.30;;
15952;SDS011;8075;47.766;8.846;2023-06-04T04:19:20;5.57;;;4.18;;
15952;SDS011;8075;47.766;8.846;2023-06-04T04:21:46;4.90;;;4.50;;
15952;SDS011;8075;47.766;8.846;2023-06-04T04:24:22;4.75;;;4.35;;
15952;SDS011;8075;47.766;8.846;2023-06-04T04:26:48;5.00;;;4.50;;
15952;SDS011;8075;47.766;8.846;2023-06-04T04:29:17;4.72;;;4.25;;
15952;SDS011;8075;47.766;8.846;2023-06-04T04:31:50;4.65;;;4.15;;
15952;SDS011;8075;47.766;8.846;2023-06-04T04:34:16;4.68;;;4.28;;
15952;SDS011;8075;47.766;8.846;2023-06-04T04:36:46;4.50;;;4.20;;
15952;SDS011;8075;47.766;8.846;2023-06-04T04:39:17;4.50;;;4.10;;
15952;SDS011;8075;47.766;8.846;2023-06-04T04:41:44;4.78;;;3.70;;
15952;SDS011;8075;47.766;8.846;2023-06-04T04:44:10;4.90;;;4.40;;
15952;SDS011;8075;47.766;8.846;2023-06-04T04:46:36;4.10;;;3.70;;
15952;SDS011;8075;47.766;8.846;2023-06-04T04:49:02;4.28;;;3.88;;
15952;SDS011;8075;47.766;8.846;2023-06-04T04:51:28;3.92;;;3.63;;
15952;SDS011;8075;47.766;8.846;2023-06-04T04:53:54;4.67;;;4.20;;
15952;SDS011;8075;47.766;8.846;2023-06-04T04:56:20;4.38;;;3.97;;
15952;SDS011;8075;47.766;8.846;2023-06-04T04:58:47;4.30;;;3.92;;
15952;SDS011;8075;47.766;8.846;2023-06-04T05:01:13;4.15;;;3.70;;
15952;SDS011;8075;47.766;8.846;2023-06-04T05:03:39;4.50;;;4.00;;
15952;SDS011;8075;47.766;8.846;2023-06-04T05:06:05;4.10;;;3.70;;
15952;SDS011;8075;47.766;8.846;2023-06-04T05:08:31;4.53;;;3.90;;
15952;SDS011;8075;47.766;8.846;2023-06-04T05:10:57;4.45;;;3.60;;
15952;SDS011;8075;47.766;8.846;2023-06-04T05:13:23;4.18;;;3.72;;
15952;SDS011;8075;47.766;8.846;2023-06-04T05:15:49;4.18;;;3.72;;
15952;SDS011;8075;47.766;8.846;2023-06-04T05:18:17;4.20;;;3.80;;
15952;SDS011;8075;47.766;8.846;2023-06-04T05:20:45;4.10;;;3.58;;
15952;SDS011;8075;47.766;8.846;2023-06-04T05:23:11;3.60;;;3.28;;
15952;SDS011;8075;47.766;8.846;2023-06-04T05:25:37;3.63;;;3.33;;
15952;SDS011;8075;47.766;8.846;2023-06-04T05:28:03;3.70;;;3.40;;
15952;SDS011;8075;47.766;8.846;2023-06-04T05:30:31;4.00;;;3.50;;
15952;SDS011;8075;47.766;8.846;2023-06-04T05:32:58;4.10;;;3.78;;
15952;SDS011;8075;47.766;8.846;2023-06-04T05:35:24;4.00;;;3.60;;
15952;SDS011;8075;47.766;8.846;2023-06-04T05:37:50;4.68;;;3.58;;
15952;SDS011;8075;47.766;8.846;2023-06-04T05:40:18;3.63;;;3.33;;
15952;SDS011;8075;47.766;8.846;2023-06-04T05:42:44;5.53;;;3.65;;
15952;SDS011;8075;47.766;8.846;2023-06-04T05:45:10;4.80;;;3.70;;
15952;SDS011;8075;47.766;8.846;2023-06-04T05:47:36;4.07;;;3.55;;
15952;SDS011;8075;47.766;8.846;2023-06-04T05:50:02;4.00;;;3.53;;
15952;SDS011;8075;47.766;8.846;2023-06-04T05:52:29;3.78;;;3.30;;
15952;SDS011;8075;47.766;8.846;2023-06-04T05:54:55;4.65;;;3.78;;
15952;SDS011;8075;47.766;8.846;2023-06-04T05:57:21;6.28;;;3.75;;
15952;SDS011;8075;47.766;8.846;2023-06-04T05:59:47;4.65;;;4.00;;
15952;SDS011;8075;47.766;8.846;2023-06-04T06:02:13;6.13;;;4.33;;
15952;SDS011;8075;47.766;8.846;2023-06-04T06:04:39;4.00;;;3.65;;
15952;SDS011;8075;47.766;8.846;2023-06-04T06:07:05;4.90;;;4.40;;
15952;SDS011;8075;47.766;8.846;2023-06-04T06:09:31;4.30;;;3.90;;
15952;SDS011;8075;47.766;8.846;2023-06-04T06:11:57;4.80;;;3.55;;
15952;SDS011;8075;47.766;8.846;2023-06-04T06:14:23;4.50;;;4.10;;
15952;SDS011;8075;47.766;8.846;2023-06-04T06:16:49;4.50;;;4.07;;
15952;SDS011;8075;47.766;8.846;2023-06-04T06:19:15;4.25;;;3.85;;
15952;SDS011;8075;47.766;8.846;2023-06-04T06:21:42;4.43;;;4.00;;
15952;SDS011;8075;47.766;8.846;2023-06-04T06:24:08;5.95;;;4.00;;
15952;SDS011;8075;47.766;8.846;2023-06-04T06:26:34;4.28;;;3.85;;
15952;SDS011;8075;47.766;8.846;2023-06-04T06:29:00;4.30;;;3.90;;
15952;SDS011;8075;47.766;8.846;2023-06-04T06:31:26;4.05;;;3.67;;
15952;SDS011;8075;47.766;8.846;2023-06-04T06:33:52;4.35;;;3.95;;
15952;SDS011;8075;47.766;8.846;2023-06-04T06:36:18;4.60;;;4.20;;
15952;SDS011;8075;47.766;8.846;2023-06-04T06:38:45;4.75;;;4.15;;
15952;SDS011;8075;47.766;8.846;2023-06-04T06:41:11;4.60;;;4.10;;
15952;SDS011;8075;47.766;8.846;2023-06-04T06:43:37;4.90;;;4.30;;
15952;SDS011;8075;47.766;8.846;2023-06-04T06:46:03;5.28;;;3.85;;
15952;SDS011;8075;47.766;8.846;2023-06-04T06:48:29;5.00;;;3.75;;
15952;SDS011;8075;47.766;8.846;2023-06-04T06:50:55;4.72;;;3.88;;
15952;SDS011;8075;47.766;8.846;2023-06-04T06:53:21;4.00;;;3.60;;
15952;SDS011;8075;47.766;8.846;2023-06-04T06:55:47;4.30;;;3.90;;
15952;SDS011;8075;47.766;8.846;2023-06-04T06:58:13;4.13;;;3.72;;
15952;SDS011;8075;47.766;8.846;2023-06-04T07:00:40;5.00;;;3.75;;
15952;SDS011;8075;47.766;8.846;2023-06-04T07:03:06;4.10;;;3.70;;
15952;SDS011;8075;47.766;8.846;2023-06-04T07:05:33;4.28;;;3.88;;
15952;SDS011;8075;47.766;8.846;2023-06-04T07:07:59;3.83;;;3.53;;
15952;SDS011;8075;47.766;8.846;2023-06-04T07:10:26;4.70;;;4.20;;
15952;SDS011;8075;47.766;8.846;2023-06-04T07:12:52;4.40;;;4.00;;
15952;SDS011;8075;47.766;8.846;2023-06-04T07:15:18;4.78;;;3.78;;
15952;SDS011;8075;47.766;8.846;2023-06-04T07:17:45;4.43;;;3.90;;
15952;SDS011;8075;47.766;8.846;2023-06-04T07:20:11;4.45;;;4.05;;
15952;SDS011;8075;47.766;8.846;2023-06-04T07:22:37;4.20;;;3.80;;
15952;SDS011;8075;47.766;8.846;2023-06-04T07:25:03;4.78;;;3.90;;
15952;SDS011;8075;47.766;8.846;2023-06-04T07:27:30;4.38;;;4.00;;
15952;SDS011;8075;47.766;8.846;2023-06-04T07:29:56;4.70;;;3.90;;
15952;SDS011;8075;47.766;8.846;2023-06-04T07:32:22;4.97;;;3.80;;
15952;SDS011;8075;47.766;8.846;2023-06-04T07:34:48;4.60;;;4.00;;
15952;SDS011;8075;47.766;8.846;2023-06-04T07:37:14;6.00;;;4.10;;
15952;SDS011;8075;47.766;8.846;2023-06-04T07:39:41;4.38;;;3.97;;
15952;SDS011;8075;47.766;8.846;2023-06-04T07:42:07;4.85;;;4.05;;
15952;SDS011;8075;47.766;8.846;2023-06-04T07:44:33;5.05;;;4.50;;
15952;SDS011;8075;47.766;8.846;2023-06-04T07:46:59;5.05;;;4.50;;
15952;SDS011;8075;47.766;8.846;2023-06-04T07:49:25;4.57;;;4.03;;
15952;SDS011;8075;47.766;8.846;2023-06-04T07:51:51;4.85;;;4.15;;
15952;SDS011;8075;47.766;8.846;2023-06-04T07:54:17;4.95;;;4.53;;
15952;SDS011;8075;47.766;8.846;2023-06-04T07:56:43;5.68;;;4.55;;
15952;SDS011;8075;47.766;8.846;2023-06-04T07:59:09;5.15;;;4.55;;
15952;SDS011;8075;47.766;8.846;2023-06-04T08:01:35;5.05;;;4.45;;
15952;SDS011;8075;47.766;8.846;2023-06-04T08:04:01;4.82;;;4.30;;
15952;SDS011;8075;47.766;8.846;2023-06-04T08:06:27;6.35;;;4.63;;
15952;SDS011;8075;47.766;8.846;2023-06-04T08:08:53;5.35;;;4.85;;
15952;SDS011;8075;47.766;8.846;2023-06-04T08:11:19;4.70;;;4.30;;
15952;SDS011;8075;47.766;8.846;2023-06-04T08:13:47;4.40;;;4.00;;
15952;SDS011;8075;47.766;8.846;2023-06-04T08:16:13;5.50;;;4.60;;
15952;SDS011;8075;47.766;8.846;2023-06-04T08:18:40;5.40;;;4.68;;
15952;SDS011;8075;47.766;8.846;2023-06-04T08:21:09;4.82;;;4.43;;
15952;SDS011;8075;47.766;8.846;2023-06-04T08:23:42;5.40;;;4.20;;
15952;SDS011;8075;47.766;8.846;2023-06-04T08:26:07;5.10;;;4.67;;
15952;SDS011;8075;47.766;8.846;2023-06-04T08:28:33;5.60;;;4.32;;
15952;SDS011;8075;47.766;8.846;2023-06-04T08:31:00;4.82;;;4.43;;
15952;SDS011;8075;47.766;8.846;2023-06-04T08:33:26;10.00;;;4.80;;
15952;SDS011;8075;47.766;8.846;2023-06-04T08:35:52;5.78;;;4.38;;
15952;SDS011;8075;47.766;8.846;2023-06-04T08:38:18;4.93;;;4.53;;
15952;SDS011;8075;47.766;8.846;2023-06-04T08:40:44;4.95;;;4.40;;
15952;SDS011;8075;47.766;8.846;2023-06-04T08:43:10;5.10;;;4.70;;
15952;SDS011;8075;47.766;8.846;2023-06-04T08:45:39;5.05;;;4.45;;
15952;SDS011;8075;47.766;8.846;2023-06-04T08:48:07;4.57;;;4.17;;
15952;SDS011;8075;47.766;8.846;2023-06-04T08:50:36;5.28;;;4.07;;
15952;SDS011;8075;47.766;8.846;2023-06-04T08:53:03;5.40;;;4.68;;
15952;SDS011;8075;47.766;8.846;2023-06-04T08:55:29;5.00;;;4.60;;
15952;SDS011;8075;47.766;8.846;2023-06-04T08:57:55;4.97;;;4.05;;
15952;SDS011;8075;47.766;8.846;2023-06-04T09:00:21;5.82;;;4.47;;
15952;SDS011;8075;47.766;8.846;2023-06-04T09:02:49;4.60;;;4.10;;
15952;SDS011;8075;47.766;8.846;2023-06-04T09:05:17;5.45;;;4.53;;
15952;SDS011;8075;47.766;8.846;2023-06-04T09:07:44;4.07;;;3.78;;
15952;SDS011;8075;47.766;8.846;2023-06-04T09:10:12;5.03;;;4.32;;
15952;SDS011;8075;47.766;8.846;2023-06-04T09:12:40;6.05;;;4.50;;
15952;SDS011;8075;47.766;8.846;2023-06-04T09:15:08;5.95;;;4.20;;
15952;SDS011;8075;47.766;8.846;2023-06-04T09:17:34;4.60;;;4.20;;
15952;SDS011;8075;47.766;8.846;2023-06-04T09:20:00;4.90;;;4.25;;
15952;SDS011;8075;47.766;8.846;2023-06-04T09:22:33;5.30;;;4.40;;
15952;SDS011;8075;47.766;8.846;2023-06-04T09:24:59;4.70;;;4.30;;
15952;SDS011;8075;47.766;8.846;2023-06-04T09:27:25;4.80;;;4.25;;
15952;SDS011;8075;47.766;8.846;2023-06-04T09:29:53;6.25;;;5.10;;
15952;SDS011;8075;47.766;8.846;2023-06-04T09:32:23;4.90;;;4.50;;
15952;SDS011;8075;47.766;8.846;2023-06-04T09:34:49;5.15;;;4.65;;
15952;SDS011;8075;47.766;8.846;2023-06-04T09:37:17;5.68;;;4.05;;
15952;SDS011;8075;47.766;8.846;2023-06-04T09:39:44;4.82;;;4.30;;
15952;SDS011;8075;47.766;8.846;2023-06-04T09:42:18;4.55;;;4.15;;
15952;SDS011;8075;47.766;8.846;2023-06-04T09:44:44;4.80;;;4.22;;
15952;SDS011;8075;47.766;8.846;2023-06-04T09:47:10;5.63;;;5.05;;
15952;SDS011;8075;47.766;8.846;2023-06-04T09:49:40;5.00;;;4.60;;
15952;SDS011;8075;47.766;8.846;2023-06-04T09:52:06;5.23;;;4.73;;
15952;SDS011;8075;47.766;8.846;2023-06-04T09:54:36;4.53;;;4.13;;
15952;SDS011;8075;47.766;8.846;2023-06-04T09:57:03;5.17;;;4.67;;
15952;SDS011;8075;47.766;8.846;2023-06-04T09:59:30;5.15;;;4.38;;
15952;SDS011;8075;47.766;8.846;2023-06-04T10:01:57;4.95;;;4.32;;
15952;SDS011;8075;47.766;8.846;2023-06-04T10:04:24;6.37;;;4.23;;
15952;SDS011;8075;47.766;8.846;2023-06-04T10:06:52;4.88;;;4.28;;
15952;SDS011;8075;47.766;8.846;2023-06-04T10:09:18;4.55;;;4.15;;
15952;SDS011;8075;47.766;8.846;2023-06-04T10:11:47;4.90;;;4.38;;
15952;SDS011;8075;47.766;8.846;2023-06-04T10:16:41;4.65;;;4.25;;
15952;SDS011;8075;47.766;8.846;2023-06-04T10:19:08;5.13;;;4.53;;
15952;SDS011;8075;47.766;8.846;2023-06-04T10:21:34;4.63;;;4.22;;
15952;SDS011;8075;47.766;8.846;2023-06-04T10:24:01;5.18;;;4.43;;
15952;SDS011;8075;47.766;8.846;2023-06-04T10:26:27;4.90;;;4.40;;
15952;SDS011;8075;47.766;8.846;2023-06-04T10:28:55;4.68;;;4.20;;
15952;SDS011;8075;47.766;8.846;2023-06-04T10:31:22;4.88;;;4.47;;
15952;SDS011;8075;47.766;8.846;2023-06-04T10:33:48;4.82;;;4.32;;
15952;SDS011;8075;47.766;8.846;2023-06-04T10:36:19;4.72;;;4.30;;
15952;SDS011;8075;47.766;8.846;2023-06-04T10:38:49;6.28;;;4.55;;
15952;SDS011;8075;47.766;8.846;2023-06-04T10:41:16;4.60;;;4.20;;
15952;SDS011;8075;47.766;8.846;2023-06-04T10:43:43;4.30;;;3.95;;
15952;SDS011;8075;47.766;8.846;2023-06-04T10:46:12;4.72;;;4.20;;
15952;SDS011;8075;47.766;8.846;2023-06-04T10:48:48;5.07;;;4.30;;
15952;SDS011;8075;47.766;8.846;2023-06-04T10:51:15;4.13;;;3.80;;
15952;SDS011;8075;47.766;8.846;2023-06-04T10:53:41;4.63;;;3.90;;
15952;SDS011;8075;47.766;8.846;2023-06-04T10:56:07;4.63;;;3.90;;
15952;SDS011;8075;47.766;8.846;2023-06-04T10:58:33;4.30;;;3.90;;
15952;SDS011;8075;47.766;8.846;2023-06-04T11:01:00;4.43;;;4.03;;
15952;SDS011;8075;47.766;8.846;2023-06-04T11:03:38;4.50;;;4.10;;
15952;SDS011;8075;47.766;8.846;2023-06-04T11:06:14;4.32;;;3.90;;
15952;SDS011;8075;47.766;8.846;2023-06-04T11:08:41;4.13;;;3.83;;
15952;SDS011;8075;47.766;8.846;2023-06-04T11:11:11;4.45;;;4.10;;
15952;SDS011;8075;47.766;8.846;2023-06-04T11:13:38;4.45;;;4.05;;
15952;SDS011;8075;47.766;8.846;2023-06-04T11:16:13;4.60;;;4.00;;
15952;SDS011;8075;47.766;8.846;2023-06-04T11:18:40;4.30;;;3.90;;
15952;SDS011;8075;47.766;8.846;2023-06-04T11:21:06;4.03;;;3.70;;
15952;SDS011;8075;47.766;8.846;2023-06-04T11:23:32;4.50;;;4.10;;
15952;SDS011;8075;47.766;8.846;2023-06-04T11:25:58;4.05;;;3.65;;
15952;SDS011;8075;47.766;8.846;2023-06-04T11:28:25;6.07;;;3.90;;
15952;SDS011;8075;47.766;8.846;2023-06-04T11:31:00;4.40;;;4.00;;
15952;SDS011;8075;47.766;8.846;2023-06-04T11:33:41;3.95;;;3.63;;
15952;SDS011;8075;47.766;8.846;2023-06-04T11:36:07;5.22;;;3.78;;
15952;SDS011;8075;47.766;8.846;2023-06-04T11:38:33;4.50;;;3.90;;
15952;SDS011;8075;47.766;8.846;2023-06-04T11:40:59;4.80;;;3.75;;
15952;SDS011;8075;47.766;8.846;2023-06-04T11:43:27;4.85;;;4.20;;
15952;SDS011;8075;47.766;8.846;2023-06-04T11:45:54;4.20;;;3.70;;
15952;SDS011;8075;47.766;8.846;2023-06-04T11:48:20;4.22;;;3.92;;
15952;SDS011;8075;47.766;8.846;2023-06-04T11:50:46;4.05;;;3.58;;
15952;SDS011;8075;47.766;8.846;2023-06-04T11:53:12;4.05;;;3.75;;
15952;SDS011;8075;47.766;8.846;2023-06-04T11:55:39;4.63;;;3.95;;
15952;SDS011;8075;47.766;8.846;2023-06-04T11:58:05;4.20;;;3.80;;
15952;SDS011;8075;47.766;8.846;2023-06-04T12:00:31;4.47;;;4.07;;
15952;SDS011;8075;47.766;8.846;2023-06-04T12:02:57;4.83;;;4.33;;
15952;SDS011;8075;47.766;8.846;2023-06-04T12:05:30;4.50;;;4.10;;
15952;SDS011;8075;47.766;8.846;2023-06-04T12:08:03;4.77;;;4.37;;
15952;SDS011;8075;47.766;8.846;2023-06-04T12:10:35;4.50;;;4.10;;
15952;SDS011;8075;47.766;8.846;2023-06-04T12:13:02;3.85;;;3.40;;
15952;SDS011;8075;47.766;8.846;2023-06-04T12:15:28;4.30;;;3.90;;
15952;SDS011;8075;47.766;8.846;2023-06-04T12:17:54;4.07;;;3.70;;
15952;SDS011;8075;47.766;8.846;2023-06-04T12:20:36;4.80;;;4.40;;
15952;SDS011;8075;47.766;8.846;2023-06-04T12:23:03;4.53;;;4.10;;
15952;SDS011;8075;47.766;8.846;2023-06-04T12:25:29;5.03;;;3.97;;
15952;SDS011;8075;47.766;8.846;2023-06-04T12:27:56;4.37;;;3.97;;
15952;SDS011;8075;47.766;8.846;2023-06-04T12:30:22;4.93;;;4.43;;
15952;SDS011;8075;47.766;8.846;2023-06-04T12:32:48;5.00;;;4.50;;
15952;SDS011;8075;47.766;8.846;2023-06-04T12:35:15;4.75;;;4.35;;
15952;SDS011;8075;47.766;8.846;2023-06-04T12:37:41;4.78;;;4.32;;
15952;SDS011;8075;47.766;8.846;2023-06-04T12:40:07;4.50;;;4.10;;
15952;SDS011;8075;47.766;8.846;2023-06-04T12:42:34;4.60;;;4.20;;
15952;SDS011;8075;47.766;8.846;2023-06-04T12:45:00;4.63;;;4.23;;
15952;SDS011;8075;47.766;8.846;2023-06-04T12:47:26;4.70;;;4.10;;
15952;SDS011;8075;47.766;8.846;2023-06-04T12:49:52;5.13;;;4.63;;
15952;SDS011;8075;47.766;8.846;2023-06-04T12:52:18;6.07;;;3.95;;
15952;SDS011;8075;47.766;8.846;2023-06-04T12:54:44;4.50;;;4.10;;
15952;SDS011;8075;47.766;8.846;2023-06-04T12:57:10;4.88;;;4.32;;
15952;SDS011;8075;47.766;8.846;2023-06-04T12:59:36;4.50;;;4.10;;
15952;SDS011;8075;47.766;8.846;2023-06-04T13:02:02;4.28;;;3.88;;
15952;SDS011;8075;47.766;8.846;2023-06-04T13:04:28;4.43;;;4.03;;
15952;SDS011;8075;47.766;8.846;2023-06-04T13:06:55;6.28;;;4.32;;
15952;SDS011;8075;47.766;8.846;2023-06-04T13:09:24;5.03;;;4.20;;
15952;SDS011;8075;47.766;8.846;2023-06-04T13:11:50;4.68;;;4.28;;
15952;SDS011;8075;47.766;8.846;2023-06-04T13:14:17;5.53;;;4.57;;
15952;SDS011;8075;47.766;8.846;2023-06-04T13:16:43;5.00;;;4.03;;
15952;SDS011;8075;47.766;8.846;2023-06-04T13:19:10;4.40;;;4.00;;
15952;SDS011;8075;47.766;8.846;2023-06-04T13:21:36;4.43;;;4.03;;
15952;SDS011;8075;47.766;8.846;2023-06-04T13:24:02;4.50;;;4.10;;
15952;SDS011;8075;47.766;8.846;2023-06-04T13:26:28;5.88;;;4.28;;
15952;SDS011;8075;47.766;8.846;2023-06-04T13:28:54;4.93;;;4.47;;
15952;SDS011;8075;47.766;8.846;2023-06-04T13:31:20;4.67;;;4.27;;
15952;SDS011;8075;47.766;8.846;2023-06-04T13:33:46;4.40;;;4.00;;
15952;SDS011;8075;47.766;8.846;2023-06-04T13:36:12;5.17;;;4.23;;
15952;SDS011;8075;47.766;8.846;2023-06-04T13:38:38;4.57;;;4.17;;
15952;SDS011;8075;47.766;8.846;2023-06-04T13:41:06;4.65;;;4.30;;
15952;SDS011;8075;47.766;8.846;2023-06-04T13:43:32;4.78;;;4.30;;
15952;SDS011;8075;47.766;8.846;2023-06-04T13:45:58;4.55;;;3.95;;
15952;SDS011;8075;47.766;8.846;2023-06-04T13:48:24;4.45;;;4.07;;
15952;SDS011;8075;47.766;8.846;2023-06-04T13:50:50;4.30;;;4.00;;
15952;SDS011;8075;47.766;8.846;2023-06-04T13:53:16;4.38;;;4.05;;
15952;SDS011;8075;47.766;8.846;2023-06-04T13:55:42;5.72;;;4.20;;
15952;SDS011;8075;47.766;8.846;2023-06-04T13:58:08;4.93;;;4.33;;
15952;SDS011;8075;47.766;8.846;2023-06-04T14:00:34;4.10;;;3.80;;
15952;SDS011;8075;47.766;8.846;2023-06-04T14:03:00;4.32;;;3.97;;
15952;SDS011;8075;47.766;8.846;2023-06-04T14:05:26;4.90;;;4.13;;
15952;SDS011;8075;47.766;8.846;2023-06-04T14:07:53;4.45;;;4.05;;
15952;SDS011;8075;47.766;8.846;2023-06-04T14:10:19;5.60;;;4.30;;
15952;SDS011;8075;47.766;8.846;2023-06-04T14:12:45;4.67;;;4.20;;
15952;SDS011;8075;47.766;8.846;2023-06-04T14:15:11;4.27;;;3.87;;
15952;SDS011;8075;47.766;8.846;2023-06-04T14:17:38;5.15;;;4.07;;
15952;SDS011;8075;47.766;8.846;2023-06-04T14:20:04;5.45;;;3.90;;
15952;SDS011;8075;47.766;8.846;2023-06-04T14:22:33;4.43;;;4.03;;
15952;SDS011;8075;47.766;8.846;2023-06-04T14:24:59;4.40;;;3.88;;
15952;SDS011;8075;47.766;8.846;2023-06-04T14:27:26;5.30;;;4.15;;
15952;SDS011;8075;47.766;8.846;2023-06-04T14:29:52;5.35;;;3.90;;
15952;SDS011;8075;47.766;8.846;2023-06-04T14:32:18;3.90;;;3.60;;
15952;SDS011;8075;47.766;8.846;2023-06-04T14:34:44;5.40;;;4.43;;
15952;SDS011;8075;47.766;8.846;2023-06-04T14:37:10;4.80;;;4.20;;
15952;SDS011;8075;47.766;8.846;2023-06-04T14:39:36;4.37;;;4.07;;
15952;SDS011;8075;47.766;8.846;2023-06-04T14:42:02;4.40;;;4.07;;
15952;SDS011;8075;47.766;8.846;2023-06-04T14:44:28;3.90;;;3.60;;
15952;SDS011;8075;47.766;8.846;2023-06-04T14:46:54;4.38;;;4.05;;
15952;SDS011;8075;47.766;8.846;2023-06-04T14:49:20;4.28;;;3.88;;
15952;SDS011;8075;47.766;8.846;2023-06-04T14:51:46;4.20;;;3.90;;
15952;SDS011;8075;47.766;8.846;2023-06-04T14:54:12;4.00;;;3.70;;
15952;SDS011;8075;47.766;8.846;2023-06-04T14:56:38;4.30;;;3.90;;
15952;SDS011;8075;47.766;8.846;2023-06-04T14:59:04;4.43;;;4.00;;
15952;SDS011;8075;47.766;8.846;2023-06-04T15:01:34;4.30;;;3.97;;